Time;durP1;ratioP1;P1;durP2;ratioP2;P2;SDS_P1;SDS_P2;PMS_P1;PMS_P2;Temp;Humidity;BMP_temperature;BMP_pressure;BME280_temperature;BME280_humidity;BME280_pressure;Samples;Min_cycle;Max_cycle;Signal;HPM_P1;HPM_P2
2023/08/09 00:00:32;;;;;;;15.70;10.05;;;13.50;99.90;;;;;;4977299;28;20136;-87
2023/08/09 00:03:01;;;;;;;9.85;4.43;;;13.60;99.90;;;;;;4962089;28;20109;-87
2023/08/09 00:05:27;;;;;;;16.50;12.25;;;13.60;99.90;;;;;;4977490;28;20046;-86
2023/08/09 00:07:53;;;;;;;10.65;5.10;;;13.60;99.90;;;;;;4977288;28;20050;-87
2023/08/09 00:10:19;;;;;;;10.60;5.25;;;13.60;99.90;;;;;;4977962;28;20129;-87
2023/08/09 00:12:44;;;;;;;12.45;5.70;;;13.60;99.90;;;;;;4977304;28;20491;-87
2023/08/09 00:15:10;;;;;;;21.23;14.70;;;13.50;99.90;;;;;;4976671;28;20041;-87
2023/08/09 00:17:36;;;;;;;18.00;6.68;;;13.60;99.90;;;;;;4976881;28;20108;-87
2023/08/09 00:20:04;;;;;;;22.05;15.27;;;13.60;99.90;;;;;;4960985;28;20125;-87
2023/08/09 00:22:30;;;;;;;12.45;5.28;;;13.60;99.90;;;;;;4976843;28;20377;-87
2023/08/09 00:24:56;;;;;;;17.73;8.40;;;13.60;99.90;;;;;;4960806;28;20038;-86
2023/08/09 00:27:22;;;;;;;17.25;8.25;;;13.60;99.90;;;;;;4976728;28;20046;-87
2023/08/09 00:29:48;;;;;;;18.13;7.68;;;13.60;99.90;;;;;;4961448;28;20389;-86
2023/08/09 00:32:14;;;;;;;20.27;16.90;;;13.60;99.90;;;;;;4977348;28;20045;-87
2023/08/09 00:34:39;;;;;;;14.23;5.55;;;13.60;99.90;;;;;;4977173;28;20129;-87
2023/08/09 00:37:05;;;;;;;15.30;6.32;;;13.70;99.90;;;;;;4959953;28;20403;-86
2023/08/09 00:39:31;;;;;;;23.08;17.52;;;13.60;99.90;;;;;;4961721;28;20141;-87
2023/08/09 00:41:56;;;;;;;13.52;7.03;;;13.60;99.90;;;;;;4977467;28;20491;-86
2023/08/09 00:44:22;;;;;;;15.93;8.00;;;13.60;99.90;;;;;;4961150;28;20491;-86
2023/08/09 00:46:48;;;;;;;24.35;18.70;;;13.70;99.90;;;;;;4977356;28;20049;-86
2023/08/09 00:49:14;;;;;;;14.45;6.28;;;13.70;99.90;;;;;;4960901;28;20388;-87
2023/08/09 00:51:41;;;;;;;23.25;18.75;;;13.70;99.90;;;;;;4961076;28;20510;-86
2023/08/09 00:54:06;;;;;;;12.98;6.20;;;13.70;99.90;;;;;;4961145;28;20529;-86
2023/08/09 00:56:32;;;;;;;15.00;6.75;;;13.70;99.90;;;;;;4960704;28;20121;-86
2023/08/09 00:58:58;;;;;;;23.40;18.90;;;13.70;99.90;;;;;;4961360;28;20073;-86
2023/08/09 01:01:23;;;;;;;12.38;6.00;;;13.70;99.90;;;;;;4977226;28;20447;-86
2023/08/09 01:03:49;;;;;;;10.60;5.60;;;13.70;99.90;;;;;;4960547;28;20049;-86
2023/08/09 01:06:40;;;;;;;23.38;17.77;;;13.60;99.90;;;;;;4977055;28;20042;-87
2023/08/09 01:09:40;;;;;;;12.23;6.53;;;13.60;99.90;;;;;;4976788;28;20085;-87
2023/08/09 01:12:11;;;;;;;15.70;8.32;;;13.60;99.90;;;;;;4976141;28;20066;-87
2023/08/09 01:14:42;;;;;;;25.50;19.77;;;13.50;99.90;;;;;;4955865;28;20892;-87
2023/08/09 01:17:15;;;;;;;12.90;6.57;;;13.60;99.90;;;;;;4970186;28;20166;-87
2023/08/09 01:19:48;;;;;;;14.38;7.13;;;13.60;99.90;;;;;;4976716;28;20038;-88
2023/08/09 01:22:21;;;;;;;23.42;18.90;;;13.50;99.90;;;;;;4976409;28;20467;-88
2023/08/09 01:24:48;;;;;;;14.23;7.28;;;13.50;99.90;;;;;;4976734;28;20049;-87
2023/08/09 01:27:14;;;;;;;20.75;18.42;;;13.50;99.90;;;;;;4975817;28;20392;-87
2023/08/09 01:29:41;;;;;;;13.63;7.75;;;13.60;99.90;;;;;;4976450;28;20042;-87
2023/08/09 01:32:07;;;;;;;14.23;6.47;;;13.50;99.90;;;;;;4976640;28;20498;-87
2023/08/09 01:34:33;;;;;;;12.65;6.63;;;13.50;99.90;;;;;;4976476;28;20065;-87
2023/08/09 01:37:08;;;;;;;15.48;8.63;;;13.50;99.90;;;;;;4975943;28;20129;-88
2023/08/09 01:39:37;;;;;;;13.63;6.97;;;13.40;99.90;;;;;;4976365;28;20041;-87
2023/08/09 01:42:04;;;;;;;13.25;6.68;;;13.40;99.90;;;;;;4976230;28;20042;-88
2023/08/09 01:44:30;;;;;;;24.60;20.23;;;13.30;99.90;;;;;;4976205;28;20046;-87
2023/08/09 01:46:57;;;;;;;18.13;8.50;;;13.40;99.90;;;;;;4960007;28;20042;-88
2023/08/09 01:49:23;;;;;;;16.95;10.32;;;13.40;99.90;;;;;;4976291;28;20101;-88
2023/08/09 01:51:51;;;;;;;26.02;20.98;;;13.30;99.90;;;;;;4975934;28;20129;-88
2023/08/09 01:54:17;;;;;;;26.65;22.13;;;13.40;99.90;;;;;;4960008;28;20046;-87
2023/08/09 01:56:43;;;;;;;15.57;7.88;;;13.40;99.90;;;;;;4975620;28;20073;-87
2023/08/09 01:59:09;;;;;;;16.85;8.52;;;13.40;99.90;;;;;;4959787;28;20125;-87
2023/08/09 02:01:36;;;;;;;18.13;9.73;;;13.30;99.90;;;;;;4975936;28;20074;-87
2023/08/09 02:04:03;;;;;;;15.02;8.20;;;13.30;99.90;;;;;;4976143;28;20061;-87
2023/08/09 02:06:33;;;;;;;26.48;21.33;;;13.30;99.90;;;;;;4975624;28;20042;-87
2023/08/09 02:08:59;;;;;;;16.88;7.88;;;13.30;99.90;;;;;;4975633;28;20049;-87
2023/08/09 02:11:25;;;;;;;14.77;8.30;;;13.30;99.90;;;;;;4959690;28;20117;-87
2023/08/09 02:13:51;;;;;;;19.55;10.60;;;13.20;99.90;;;;;;4959670;28;20124;-87
2023/08/09 02:16:18;;;;;;;16.92;7.53;;;13.20;99.90;;;;;;4959820;28;20046;-87
2023/08/09 02:18:43;;;;;;;25.58;20.90;;;13.20;99.90;;;;;;4975523;28;20105;-87
2023/08/09 02:21:10;;;;;;;15.25;8.15;;;13.20;99.90;;;;;;4975544;28;20472;-87
2023/08/09 02:23:39;;;;;;;25.17;22.25;;;13.20;99.90;;;;;;4959536;28;20046;-87
2023/08/09 02:26:08;;;;;;;16.98;8.55;;;13.20;99.90;;;;;;4959753;28;20042;-87
2023/08/09 02:28:34;;;;;;;28.90;23.50;;;13.20;99.90;;;;;;4975307;28;20085;-87
2023/08/09 02:30:59;;;;;;;19.88;7.97;;;13.20;99.90;;;;;;4975598;28;20074;-87
2023/08/09 02:33:25;;;;;;;13.55;7.43;;;13.20;99.90;;;;;;4959307;28;20074;-87
2023/08/09 02:35:59;;;;;;;16.40;6.75;;;13.20;99.90;;;;;;4975446;28;20038;-87
2023/08/09 02:38:26;;;;;;;23.02;8.50;;;13.10;99.90;;;;;;4959301;28;20138;-87
2023/08/09 02:40:52;;;;;;;18.40;8.68;;;13.10;99.90;;;;;;4975227;28;20042;-87
2023/08/09 02:43:25;;;;;;;18.88;11.32;;;13.10;99.90;;;;;;4959192;28;20089;-88
2023/08/09 02:45:52;;;;;;;16.10;7.07;;;13.10;99.90;;;;;;4975591;28;20046;-88
2023/08/09 02:48:18;;;;;;;34.33;24.83;;;13.10;99.90;;;;;;4958927;28;20042;-87
2023/08/09 02:50:43;;;;;;;14.60;6.65;;;13.10;99.90;;;;;;4975548;28;20034;-87
2023/08/09 02:53:10;;;;;;;30.80;23.52;;;13.10;99.90;;;;;;4959231;28;20093;-87
2023/08/09 02:55:36;;;;;;;13.82;7.68;;;13.10;99.90;;;;;;4959366;28;20030;-87
2023/08/09 02:58:03;;;;;;;15.63;7.88;;;13.10;99.90;;;;;;4975050;28;20043;-87
2023/08/09 03:00:33;;;;;;;13.85;7.68;;;13.10;99.90;;;;;;4975596;28;20054;-87
2023/08/09 03:03:00;;;;;;;14.88;7.75;;;13.00;99.90;;;;;;4959090;28;20408;-87
2023/08/09 03:05:26;;;;;;;30.75;24.38;;;13.00;99.90;;;;;;4975061;28;20050;-87
2023/08/09 03:07:52;;;;;;;17.05;7.68;;;13.00;99.90;;;;;;4958677;28;20121;-88
2023/08/09 03:10:18;;;;;;;16.90;5.70;;;13.00;99.90;;;;;;4975308;28;20169;-87
2023/08/09 03:12:44;;;;;;;23.73;7.13;;;13.00;99.90;;;;;;4975670;28;20042;-87
2023/08/09 03:15:10;;;;;;;26.63;6.35;;;12.90;99.90;;;;;;4958989;28;20504;-87
2023/08/09 03:17:36;;;;;;;33.33;22.63;;;12.90;99.90;;;;;;4986965;28;20077;-87
2023/08/09 03:20:13;;;;;;;19.38;7.18;;;12.90;99.90;;;;;;4960967;28;20496;-87
2023/08/09 03:22:39;;;;;;;16.15;7.40;;;12.90;99.90;;;;;;4960791;28;20492;-88
2023/08/09 03:25:05;;;;;;;17.83;8.43;;;12.90;99.90;;;;;;4960174;28;20093;-88
2023/08/09 03:27:31;;;;;;;44.70;26.33;;;12.80;99.90;;;;;;4975742;28;20050;-88
2023/08/09 03:29:56;;;;;;;14.52;7.68;;;12.80;99.90;;;;;;4975993;28;20079;-88
2023/08/09 03:32:22;;;;;;;31.27;9.30;;;12.80;99.90;;;;;;4975780;28;20121;-88
2023/08/09 03:34:48;;;;;;;16.98;7.90;;;12.80;99.90;;;;;;4977365;28;20478;-88
2023/08/09 03:37:14;;;;;;;20.20;9.18;;;12.80;99.90;;;;;;4978676;28;20042;-87
2023/08/09 03:39:40;;;;;;;28.08;8.25;;;12.80;99.90;;;;;;4978710;28;20064;-87
2023/08/09 03:42:06;;;;;;;20.80;9.05;;;12.80;99.90;;;;;;4978535;28;20065;-88
2023/08/09 03:44:31;;;;;;;20.73;8.50;;;12.80;99.90;;;;;;4978790;28;20046;-87
2023/08/09 03:46:57;;;;;;;25.02;8.40;;;12.80;99.90;;;;;;4961876;28;20411;-87
2023/08/09 03:49:22;;;;;;;62.00;10.02;;;12.70;99.90;;;;;;4962177;28;20046;-88
2023/08/09 03:51:48;;;;;;;21.98;8.00;;;12.80;99.90;;;;;;4962148;28;20511;-87
2023/08/09 03:54:14;;;;;;;28.10;7.78;;;12.70;99.90;;;;;;4962425;28;20030;-87
2023/08/09 03:56:40;;;;;;;14.52;6.63;;;12.70;99.90;;;;;;4961910;28;20451;-88
2023/08/09 03:59:07;;;;;;;14.80;6.95;;;12.70;99.90;;;;;;4961868;28;20878;-87
2023/08/09 04:01:33;;;;;;;19.15;7.82;;;12.70;99.90;;;;;;4978007;28;20046;-88
2023/08/09 04:03:58;;;;;;;47.42;22.95;;;12.70;99.90;;;;;;4962111;28;20045;-87
2023/08/09 04:06:24;;;;;;;22.00;8.23;;;12.70;99.90;;;;;;4978155;28;20041;-87
2023/08/09 04:08:49;;;;;;;16.42;7.40;;;12.70;99.90;;;;;;4977546;28;20534;-87
2023/08/09 04:11:15;;;;;;;21.10;8.15;;;12.70;99.90;;;;;;4978052;28;20045;-88
2023/08/09 04:13:41;;;;;;;42.47;8.25;;;12.60;99.90;;;;;;4977758;28;20049;-88
2023/08/09 04:16:07;;;;;;;37.30;9.15;;;12.60;99.90;;;;;;4961417;28;20042;-87
2023/08/09 04:18:33;;;;;;;32.65;8.13;;;12.60;99.90;;;;;;4961253;28;20121;-88
2023/08/09 04:20:58;;;;;;;60.35;22.98;;;12.60;99.90;;;;;;4961570;28;20038;-87
2023/08/09 04:23:24;;;;;;;42.17;8.88;;;12.70;99.90;;;;;;4977523;28;20519;-87
2023/08/09 04:25:50;;;;;;;23.65;7.03;;;12.70;99.90;;;;;;4961814;28;20039;-87
2023/08/09 04:28:15;;;;;;;39.85;6.90;;;12.60;99.90;;;;;;4960999;28;20530;-88
2023/08/09 04:30:41;;;;;;;33.85;6.82;;;12.60;99.90;;;;;;4977639;28;20038;-88
2023/08/09 04:33:07;;;;;;;32.28;7.28;;;12.60;99.90;;;;;;4977326;28;20524;-87
2023/08/09 04:35:33;;;;;;;65.15;9.23;;;12.60;99.90;;;;;;4977468;28;20038;-88
2023/08/09 04:38:00;;;;;;;44.70;8.73;;;12.50;99.90;;;;;;4977538;28;20049;-87
2023/08/09 04:40:25;;;;;;;36.72;7.32;;;12.50;99.90;;;;;;4961224;28;20048;-87
2023/08/09 04:42:52;;;;;;;28.85;7.80;;;12.50;99.90;;;;;;4977317;28;20487;-88
2023/08/09 04:45:17;;;;;;;48.58;9.77;;;12.50;99.90;;;;;;4976549;28;20046;-87
2023/08/09 04:47:43;;;;;;;38.85;7.53;;;12.50;99.90;;;;;;4976764;28;20042;-88
2023/08/09 04:50:09;;;;;;;52.10;8.95;;;12.50;99.90;;;;;;4961365;28;20039;-87
2023/08/09 04:52:36;;;;;;;38.45;8.63;;;12.60;99.90;;;;;;4960750;28;20038;-87
2023/08/09 04:55:03;;;;;;;68.55;23.08;;;12.50;99.90;;;;;;4977354;28;20045;-88
2023/08/09 04:57:31;;;;;;;33.83;8.63;;;12.60;99.90;;;;;;4960559;28;20050;-87
2023/08/09 04:59:57;;;;;;;19.50;6.93;;;12.60;99.90;;;;;;4961207;28;20049;-88
2023/08/09 05:02:22;;;;;;;18.23;7.28;;;12.60;99.90;;;;;;4977105;28;20436;-87
2023/08/09 05:04:48;;;;;;;39.55;10.20;;;12.50;99.90;;;;;;4977247;28;20045;-87
2023/08/09 05:07:13;;;;;;;32.75;8.25;;;12.50;99.90;;;;;;4976373;28;20585;-87
2023/08/09 05:09:39;;;;;;;26.70;8.77;;;12.50;99.90;;;;;;4960911;28;20034;-87
2023/08/09 05:12:05;;;;;;;25.98;10.02;;;12.50;99.90;;;;;;4976516;28;20050;-87
2023/08/09 05:14:31;;;;;;;25.67;8.00;;;12.50;99.90;;;;;;4976704;28;20031;-87
2023/08/09 05:16:56;;;;;;;26.85;7.50;;;12.50;99.90;;;;;;4976695;28;20034;-87
2023/08/09 05:19:22;;;;;;;23.88;8.35;;;12.50;99.90;;;;;;4976678;28;20096;-87
2023/08/09 05:21:48;;;;;;;31.48;8.07;;;12.60;99.90;;;;;;4960651;28;20049;-87
2023/08/09 05:24:14;;;;;;;23.55;8.50;;;12.60;99.90;;;;;;4960377;28;20059;-87
2023/08/09 05:26:40;;;;;;;27.30;8.13;;;12.50;99.90;;;;;;4960493;28;20407;-87
2023/08/09 05:29:05;;;;;;;15.10;6.53;;;12.50;99.90;;;;;;4960350;28;20062;-88
2023/08/09 05:31:31;;;;;;;12.68;5.97;;;12.50;99.90;;;;;;4976316;28;20479;-87
2023/08/09 05:33:57;;;;;;;19.00;7.38;;;12.60;99.90;;;;;;4958576;28;20038;-85
2023/08/09 05:36:23;;;;;;;13.10;6.63;;;12.60;99.90;;;;;;4976049;28;20061;-86
2023/08/09 05:38:49;;;;;;;21.23;6.40;;;12.60;99.90;;;;;;4959913;28;20078;-87
2023/08/09 05:41:15;;;;;;;30.63;7.03;;;12.60;99.90;;;;;;4976241;28;20085;-86
2023/08/09 05:43:41;;;;;;;18.77;6.75;;;12.60;99.90;;;;;;4947308;28;20034;-86
2023/08/09 05:46:06;;;;;;;15.68;7.43;;;12.60;99.90;;;;;;4956829;28;20038;-86
2023/08/09 05:48:32;;;;;;;13.68;5.88;;;12.60;99.90;;;;;;4940672;28;20082;-86
2023/08/09 05:50:58;;;;;;;19.55;7.25;;;12.60;99.90;;;;;;4956863;28;20038;-86
2023/08/09 05:53:23;;;;;;;25.40;18.90;;;12.60;99.90;;;;;;4954849;28;20039;-87
2023/08/09 05:55:49;;;;;;;10.93;5.65;;;12.70;99.90;;;;;;4955080;28;20542;-86
2023/08/09 05:58:15;;;;;;;19.48;17.33;;;12.70;99.90;;;;;;4940340;28;20043;-87
2023/08/09 06:00:41;;;;;;;13.02;6.53;;;12.70;99.90;;;;;;4972670;28;20043;-87
2023/08/09 06:03:07;;;;;;;10.00;5.13;;;12.70;99.90;;;;;;4956816;28;20054;-86
2023/08/09 06:05:33;;;;;;;19.67;7.35;;;12.70;99.90;;;;;;4956522;28;20512;-86
2023/08/09 06:07:59;;;;;;;15.13;6.75;;;12.70;99.90;;;;;;4956272;28;20043;-87
2023/08/09 06:10:25;;;;;;;17.75;8.90;;;12.70;99.90;;;;;;4940507;28;20043;-86
2023/08/09 06:12:53;;;;;;;24.65;20.67;;;12.80;99.90;;;;;;4956209;28;20070;-86
2023/08/09 06:15:20;;;;;;;12.55;6.57;;;12.90;99.90;;;;;;4940329;28;20046;-87
2023/08/09 06:17:46;;;;;;;12.95;6.57;;;12.90;99.90;;;;;;4956074;28;20049;-86
2023/08/09 06:20:15;;;;;;;13.73;7.35;;;12.90;99.90;;;;;;4956205;28;20043;-87
2023/08/09 06:22:41;;;;;;;13.27;6.93;;;13.00;99.90;;;;;;4940346;28;20093;-86
2023/08/09 06:25:08;;;;;;;21.88;19.48;;;13.00;99.90;;;;;;4956103;28;20047;-86
2023/08/09 06:27:34;;;;;;;14.57;6.65;;;13.10;99.90;;;;;;4955505;28;20039;-86
2023/08/09 06:30:00;;;;;;;23.25;19.20;;;13.10;99.90;;;;;;4940488;28;20043;-86
2023/08/09 06:32:25;;;;;;;15.20;7.03;;;13.10;99.90;;;;;;4940209;28;20039;-86
2023/08/09 06:34:51;;;;;;;18.73;16.90;;;13.10;99.90;;;;;;4956303;28;20126;-87
2023/08/09 06:37:17;;;;;;;13.05;7.20;;;13.20;99.90;;;;;;4942778;28;20042;-87
2023/08/09 06:39:43;;;;;;;12.55;6.40;;;13.20;99.90;;;;;;4974417;28;20177;-86
2023/08/09 06:42:12;;;;;;;18.55;16.75;;;13.10;99.90;;;;;;4958078;28;20120;-87
2023/08/09 06:44:38;;;;;;;11.15;6.40;;;13.20;99.90;;;;;;4973812;28;20042;-86
2023/08/09 06:47:04;;;;;;;11.45;6.32;;;13.20;99.90;;;;;;4956977;28;20037;-87
2023/08/09 06:49:29;;;;;;;12.80;6.72;;;13.30;99.90;;;;;;4974021;28;20046;-87
2023/08/09 06:51:55;;;;;;;13.02;7.57;;;13.30;99.90;;;;;;4990301;28;20037;-87
2023/08/09 06:54:21;;;;;;;12.38;6.60;;;13.30;99.90;;;;;;4957790;28;20042;-87
2023/08/09 06:56:46;;;;;;;12.50;6.53;;;13.40;99.90;;;;;;4973923;28;20120;-87
2023/08/09 06:59:12;;;;;;;12.27;7.22;;;13.40;99.90;;;;;;4958037;28;20074;-87
2023/08/09 07:01:37;;;;;;;13.20;8.98;;;13.50;99.90;;;;;;4958236;28;20054;-87
2023/08/09 07:04:03;;;;;;;17.17;15.48;;;13.50;99.90;;;;;;4974783;28;20046;-88
2023/08/09 07:06:29;;;;;;;21.23;19.13;;;13.60;99.90;;;;;;4957633;28;20044;-88
2023/08/09 07:08:54;;;;;;;13.55;7.03;;;13.70;99.90;;;;;;4974634;28;20043;-87
2023/08/09 07:11:21;;;;;;;8.90;4.70;;;13.70;99.90;;;;;;4977907;28;20047;-87
2023/08/09 07:13:47;;;;;;;16.58;14.98;;;13.70;99.90;;;;;;4977624;28;20045;-88
2023/08/09 07:16:12;;;;;;;14.25;7.35;;;13.70;99.90;;;;;;4978217;28;20034;-88
2023/08/09 07:18:38;;;;;;;16.58;14.88;;;13.80;99.90;;;;;;4961686;28;20042;-88
2023/08/09 07:21:04;;;;;;;15.93;6.97;;;13.90;99.90;;;;;;4977726;28;20077;-87
2023/08/09 07:23:31;;;;;;;11.85;6.57;;;13.90;99.90;;;;;;4961836;28;20050;-88
2023/08/09 07:25:57;;;;;;;11.45;5.82;;;14.00;99.90;;;;;;4977985;28;20042;-88
2023/08/09 07:28:22;;;;;;;13.20;5.25;;;14.00;99.90;;;;;;4977758;28;20100;-88
2023/08/09 07:30:51;;;;;;;10.02;5.82;;;14.10;99.90;;;;;;4961487;28;20523;-88
2023/08/09 07:33:17;;;;;;;11.93;6.03;;;14.10;99.90;;;;;;4961121;28;20031;-88
2023/08/09 07:35:42;;;;;;;14.32;12.93;;;14.20;99.90;;;;;;4938528;29;20101;-89
2023/08/09 07:38:08;;;;;;;14.45;12.00;;;14.30;99.90;;;;;;4939148;29;20531;-88
2023/08/09 07:40:33;;;;;;;10.70;5.45;;;14.50;99.90;;;;;;4923309;29;20051;-88
2023/08/09 07:43:01;;;;;;;13.07;6.57;;;14.50;99.90;;;;;;4954763;29;20046;-87
2023/08/09 07:45:28;;;;;;;13.75;12.35;;;14.50;99.90;;;;;;4938805;29;20035;-88
2023/08/09 07:47:54;;;;;;;12.73;6.18;;;14.60;99.90;;;;;;4938451;29;20055;-88
2023/08/09 07:50:20;;;;;;;13.20;10.60;;;14.70;99.90;;;;;;4954450;28;20039;-88
2023/08/09 07:52:47;;;;;;;12.98;11.20;;;14.80;99.90;;;;;;4939046;29;20047;-88
2023/08/09 07:55:13;;;;;;;13.25;11.43;;;14.90;99.90;;;;;;4939153;29;20050;-88
2023/08/09 07:57:38;;;;;;;12.57;10.77;;;15.00;99.90;;;;;;4923145;29;20074;-88
2023/08/09 08:00:11;;;;;;;13.30;10.80;;;15.10;99.90;;;;;;4939003;29;20059;-88
2023/08/09 08:02:36;;;;;;;11.68;5.60;;;15.20;99.90;;;;;;4937786;29;20413;-88
2023/08/09 08:05:02;;;;;;;12.70;11.38;;;15.20;99.90;;;;;;4937199;29;20043;-88
2023/08/09 08:07:28;;;;;;;10.40;5.82;;;15.30;99.90;;;;;;4936650;29;20043;-89
2023/08/09 08:09:54;;;;;;;11.43;5.85;;;15.40;99.90;;;;;;4938272;29;20519;-89
2023/08/09 08:12:21;;;;;;;10.63;5.72;;;15.40;99.90;;;;;;4938406;29;20469;-88
2023/08/09 08:14:47;;;;;;;10.05;5.75;;;15.50;99.90;;;;;;4938233;29;20378;-88
2023/08/09 08:17:12;;;;;;;11.05;8.95;;;15.50;99.90;;;;;;4937745;29;20572;-88
2023/08/09 08:19:38;;;;;;;12.85;5.82;;;15.70;99.90;;;;;;4922744;28;20089;-88
2023/08/09 08:22:05;;;;;;;12.02;8.25;;;15.80;99.90;;;;;;4937802;29;20043;-88
2023/08/09 08:24:31;;;;;;;10.77;8.52;;;15.90;99.90;;;;;;4922318;29;20174;-88
2023/08/09 08:26:57;;;;;;;9.70;6.78;;;16.00;99.90;;;;;;4937765;29;20110;-88
2023/08/09 08:29:23;;;;;;;7.63;2.88;;;16.10;99.90;;;;;;4938296;29;20050;-88
2023/08/09 08:31:51;;;;;;;8.60;5.65;;;16.10;99.90;;;;;;4922244;29;20073;-88
2023/08/09 08:34:18;;;;;;;9.52;3.17;;;16.20;99.90;;;;;;4938000;29;20571;-88
2023/08/09 08:36:44;;;;;;;8.75;5.43;;;16.30;99.90;;;;;;4937560;29;20047;-88
2023/08/09 08:39:14;;;;;;;8.55;4.72;;;16.30;99.90;;;;;;4922560;29;20043;-87
2023/08/09 08:41:41;;;;;;;8.70;3.92;;;16.40;99.90;;;;;;4948218;28;20042;-88
2023/08/09 08:44:08;;;;;;;9.05;5.85;;;16.40;99.90;;;;;;4940828;28;20042;-88
2023/08/09 08:46:34;;;;;;;8.45;5.47;;;16.50;99.90;;;;;;4956677;28;20039;-88
2023/08/09 08:49:03;;;;;;;9.50;5.43;;;16.60;99.90;;;;;;4939876;28;20102;-88
2023/08/09 08:51:32;;;;;;;9.63;3.50;;;16.80;99.90;;;;;;4956146;28;20649;-88
2023/08/09 08:53:59;;;;;;;10.27;5.25;;;16.80;99.90;;;;;;4956383;28;20042;-88
2023/08/09 08:56:24;;;;;;;7.32;3.35;;;16.90;99.90;;;;;;4956529;28;20164;-88
2023/08/09 08:58:50;;;;;;;9.35;4.72;;;16.90;99.90;;;;;;4940766;28;20698;-88
2023/08/09 09:01:18;;;;;;;8.93;3.92;;;17.00;99.90;;;;;;4940570;28;20047;-87
2023/08/09 09:03:44;;;;;;;7.90;3.30;;;17.10;99.90;;;;;;4940702;28;20051;-88
2023/08/09 09:06:10;;;;;;;7.97;3.40;;;17.20;99.90;;;;;;4955650;28;20039;-88
2023/08/09 09:08:43;;;;;;;8.65;4.28;;;17.30;99.90;;;;;;4954331;28;20050;-88
2023/08/09 09:11:16;;;;;;;8.98;3.38;;;17.40;99.90;;;;;;4954521;28;20078;-88
2023/08/09 09:13:42;;;;;;;7.40;2.97;;;17.50;99.90;;;;;;4953976;28;20034;-88
2023/08/09 09:16:08;;;;;;;6.03;1.90;;;17.60;99.90;;;;;;4938468;28;20038;-88
2023/08/09 09:18:45;;;;;;;5.80;2.50;;;17.50;99.90;;;;;;4954977;28;20562;-88
2023/08/09 09:21:11;;;;;;;7.03;2.70;;;17.60;99.90;;;;;;4953102;28;20503;-88
2023/08/09 09:23:37;;;;;;;7.93;2.60;;;17.70;99.90;;;;;;4956395;28;20057;-88
2023/08/09 09:26:10;;;;;;;5.50;1.55;;;17.80;99.90;;;;;;4955602;28;20043;-88
2023/08/09 09:28:41;;;;;;;5.25;1.60;;;17.90;99.90;;;;;;4954387;28;20563;-88
2023/08/09 09:31:08;;;;;;;6.65;1.48;;;17.90;99.90;;;;;;4938408;28;20039;-88
2023/08/09 09:33:35;;;;;;;5.18;1.95;;;18.10;99.90;;;;;;4962006;28;20042;-88
2023/08/09 09:36:02;;;;;;;5.30;2.20;;;18.10;99.90;;;;;;4944648;28;20246;-88
2023/08/09 09:38:28;;;;;;;6.93;1.95;;;18.20;99.90;;;;;;4946974;28;20047;-88
2023/08/09 09:40:56;;;;;;;4.05;1.50;;;18.20;99.90;;;;;;4942235;29;20058;-88
2023/08/09 09:43:23;;;;;;;4.68;1.60;;;18.30;99.90;;;;;;4937284;29;20047;-88
2023/08/09 09:45:53;;;;;;;4.95;1.30;;;18.50;99.90;;;;;;4936297;28;20042;-87
2023/08/09 09:48:19;;;;;;;3.92;1.30;;;18.50;99.90;;;;;;4945609;28;20043;-87
2023/08/09 09:50:45;;;;;;;8.82;3.10;;;18.60;99.90;;;;;;4946656;28;20027;-87
2023/08/09 09:53:14;;;;;;;8.68;3.20;;;18.70;99.90;;;;;;4944410;28;20046;-87
2023/08/09 09:55:40;;;;;;;5.15;1.70;;;18.70;99.90;;;;;;4945547;28;20041;-88
2023/08/09 09:58:06;;;;;;;6.40;1.67;;;18.90;99.90;;;;;;4941858;29;20385;-88
2023/08/09 10:00:33;;;;;;;7.55;2.05;;;19.00;99.90;;;;;;4936512;29;20563;-87
2023/08/09 10:03:04;;;;;;;8.77;2.67;;;19.00;99.90;;;;;;4935650;29;20086;-87
2023/08/09 10:05:35;;;;;;;3.90;1.48;;;19.10;99.90;;;;;;4935618;29;20082;-87
2023/08/09 10:08:07;;;;;;;6.20;2.00;;;19.10;99.90;;;;;;4935155;29;20039;-87
2023/08/09 10:10:36;;;;;;;5.88;1.90;;;19.00;96.00;;;;;;4940262;28;20035;-87
2023/08/09 10:13:04;;;;;;;4.90;1.65;;;18.90;99.90;;;;;;4945964;28;20393;-87
2023/08/09 10:15:41;;;;;;;7.15;1.70;;;18.90;99.90;;;;;;4942071;28;20046;-87
2023/08/09 10:18:16;;;;;;;5.18;1.40;;;19.00;99.90;;;;;;4945815;28;20148;-86
2023/08/09 10:20:46;;;;;;;4.70;1.60;;;19.00;99.90;;;;;;4955609;28;20089;-87
2023/08/09 10:23:25;;;;;;;5.43;1.38;;;19.20;99.90;;;;;;4955315;28;20047;-87
2023/08/09 10:25:52;;;;;;;5.80;1.70;;;19.30;97.40;;;;;;4939038;28;20038;-87
2023/08/09 10:28:18;;;;;;;5.07;1.40;;;19.30;95.60;;;;;;4938746;28;20518;-87
2023/08/09 10:30:54;;;;;;;6.20;1.45;;;19.20;96.20;;;;;;4953360;28;20094;-87
2023/08/09 10:33:20;;;;;;;4.88;1.58;;;19.20;93.00;;;;;;4952312;28;20066;-88
2023/08/09 10:35:54;;;;;;;5.07;1.45;;;19.20;98.10;;;;;;4938515;28;20449;-87
2023/08/09 10:38:39;;;;;;;4.10;1.45;;;19.20;94.90;;;;;;4939307;28;20042;-87
2023/08/09 10:41:11;;;;;;;5.95;1.40;;;19.20;92.40;;;;;;4955231;28;20508;-87
2023/08/09 10:43:37;;;;;;;;;;;19.20;97.00;;;;;;4955448;28;20635;-87
2023/08/09 10:46:24;;;;;;;6.30;1.40;;;19.10;92.30;;;;;;4959197;28;19918;-87
2023/08/09 10:48:51;;;;;;;4.60;1.35;;;19.30;97.80;;;;;;4958701;28;20043;-87
2023/08/09 10:51:18;;;;;;;4.28;1.05;;;19.50;90.90;;;;;;4943623;28;20078;-87
2023/08/09 10:54:01;;;;;;;4.68;1.20;;;19.70;90.80;;;;;;4959195;28;20043;-87
2023/08/09 10:56:46;;;;;;;4.80;1.20;;;19.80;91.10;;;;;;4959033;28;20035;-87
2023/08/09 10:59:27;;;;;;;5.20;1.45;;;19.80;86.30;;;;;;4943260;28;20481;-87
2023/08/09 11:01:54;;;;;;;3.70;1.40;;;19.80;85.90;;;;;;4943188;28;20570;-87
2023/08/09 11:04:20;;;;;;;4.50;1.30;;;19.80;88.70;;;;;;4943425;28;20049;-87
2023/08/09 11:06:48;;;;;;;2.75;0.90;;;19.90;85.20;;;;;;4958151;28;20512;-88
2023/08/09 11:09:22;;;;;;;2.88;1.10;;;20.00;81.90;;;;;;4958040;28;20039;-88
2023/08/09 11:11:50;;;;;;;4.35;1.25;;;20.10;81.70;;;;;;4939891;28;20556;-87
2023/08/09 11:14:18;;;;;;;3.55;1.20;;;20.20;81.10;;;;;;4958346;28;20647;-88
2023/08/09 11:16:44;;;;;;;4.55;1.20;;;20.40;81.80;;;;;;4941918;28;20035;-87
2023/08/09 11:19:16;;;;;;;3.95;1.27;;;20.50;79.60;;;;;;4941912;28;20090;-88
2023/08/09 11:21:52;;;;;;;3.00;1.03;;;20.60;80.10;;;;;;4942019;28;20523;-88
2023/08/09 11:24:19;;;;;;;3.92;1.30;;;20.70;83.10;;;;;;4939753;28;20278;-88
2023/08/09 11:26:53;;;;;;;3.70;1.00;;;20.90;82.10;;;;;;4949796;28;20122;-88
2023/08/09 11:29:21;;;;;;;5.85;1.38;;;21.00;82.00;;;;;;4950092;28;20049;-87
2023/08/09 11:31:50;;;;;;;3.58;1.25;;;21.00;78.30;;;;;;4948324;28;20090;-87
2023/08/09 11:34:18;;;;;;;5.43;1.30;;;20.80;78.30;;;;;;4947710;28;20047;-87
2023/08/09 11:36:45;;;;;;;5.18;1.55;;;20.70;80.10;;;;;;4966724;28;20042;-88
2023/08/09 11:39:15;;;;;;;5.43;1.20;;;20.70;80.70;;;;;;4948809;28;20509;-87
2023/08/09 11:41:54;;;;;;;4.75;1.40;;;20.60;78.40;;;;;;4947199;28;20043;-88
2023/08/09 11:44:29;;;;;;;4.72;1.63;;;20.70;79.80;;;;;;4947575;28;20505;-88
2023/08/09 11:46:56;;;;;;;4.88;1.60;;;20.70;78.60;;;;;;4947260;28;20054;-88
2023/08/09 11:49:29;;;;;;;5.72;1.40;;;20.80;77.50;;;;;;4949713;28;20046;-87
2023/08/09 11:51:55;;;;;;;5.13;1.40;;;20.80;79.80;;;;;;4947731;28;20036;-88
2023/08/09 11:54:24;;;;;;;5.03;1.50;;;21.00;80.90;;;;;;4939066;28;20523;-87
2023/08/09 11:56:51;;;;;;;5.25;1.52;;;21.10;82.20;;;;;;4938615;29;20047;-87
2023/08/09 11:59:18;;;;;;;4.22;1.45;;;21.00;76.40;;;;;;4954692;29;20079;-87
2023/08/09 12:01:52;;;;;;;4.78;1.30;;;20.90;76.00;;;;;;4956397;29;20500;-86
2023/08/09 12:04:22;;;;;;;8.35;1.60;;;20.90;76.30;;;;;;4940747;29;20062;-86
2023/08/09 12:06:51;;;;;;;5.93;1.50;;;20.70;76.90;;;;;;4940123;29;20102;-87
2023/08/09 12:09:35;;;;;;;5.50;1.50;;;21.00;78.40;;;;;;4939762;29;20531;-87
2023/08/09 12:12:06;;;;;;;3.17;1.30;;;21.10;80.30;;;;;;4940330;29;20047;-88
2023/08/09 12:14:33;;;;;;;6.85;1.58;;;21.10;77.70;;;;;;4939913;29;20126;-87
2023/08/09 12:16:59;;;;;;;3.47;1.38;;;21.00;79.80;;;;;;4955149;29;20047;-88
2023/08/09 12:19:25;;;;;;;4.65;1.40;;;21.10;81.10;;;;;;4954421;29;20050;-88
2023/08/09 12:21:51;;;;;;;4.68;1.70;;;21.00;77.30;;;;;;4938955;29;20150;-88
2023/08/09 12:24:16;;;;;;;5.35;1.48;;;20.90;78.70;;;;;;4938346;29;20130;-88
2023/08/09 12:26:42;;;;;;;6.43;1.63;;;21.00;80.00;;;;;;4937942;29;20043;-88
2023/08/09 12:29:11;;;;;;;5.15;1.65;;;21.10;80.20;;;;;;4953591;29;20504;-88
2023/08/09 12:31:37;;;;;;;6.20;1.77;;;21.40;78.90;;;;;;4954506;29;20043;-88
2023/08/09 12:34:03;;;;;;;6.53;1.88;;;21.60;80.40;;;;;;4954362;29;20057;-88
2023/08/09 12:36:30;;;;;;;4.20;1.60;;;21.90;80.30;;;;;;4938064;29;20122;-88
2023/08/09 12:38:56;;;;;;;5.95;1.60;;;22.00;80.90;;;;;;4937979;29;20039;-88